Time;durP1;ratioP1;P1;durP2;ratioP2;P2;SDS_P1;SDS_P2;PMS_P1;PMS_P2;Temp;Humidity;BMP_temperature;BMP_pressure;BME280_temperature;BME280_humidity;BME280_pressure;Samples;Min_cycle;Max_cycle;Signal;HPM_P1;HPM_P2
2023/02/27 00:01:56;;;;;;;25.73;11.00;;;;;;;-2.90;100.00;146714.34;5020159;28;20123;-62
2023/02/27 00:04:21;;;;;;;29.93;11.63;;;;;;;-2.88;100.00;146719.44;5017622;28;20492;-62
2023/02/27 00:06:47;;;;;;;25.50;11.97;;;;;;;-2.87;100.00;146722.00;5017553;28;20060;-62
2023/02/27 00:09:12;;;;;;;26.43;11.17;;;;;;;-3.05;100.00;146677.22;5019671;28;20426;-62
2023/02/27 00:11:38;;;;;;;24.37;11.07;;;;;;;-3.11;100.00;146663.16;5020651;28;20052;-62
2023/02/27 00:14:03;;;;;;;26.57;10.77;;;;;;;-3.18;100.00;146643.94;5023610;28;20026;-62
2023/02/27 00:16:29;;;;;;;27.90;11.63;;;;;;;-3.06;100.00;146674.66;5015260;28;20033;-62
2023/02/27 00:18:55;;;;;;;27.47;11.27;;;;;;;-3.04;100.00;146681.03;5023718;28;20030;-62
2023/02/27 00:21:22;;;;;;;27.93;11.43;;;;;;;-3.00;100.00;146691.31;5015578;28;20047;-62
2023/02/27 00:23:47;;;;;;;29.77;11.30;;;;;;;-3.09;100.00;146667.00;5029306;28;20772;-62
2023/02/27 00:26:12;;;;;;;22.63;10.50;;;;;;;-3.03;100.00;146683.63;5019140;28;20311;-62
2023/02/27 00:28:38;;;;;;;24.83;11.20;;;;;;;-3.01;100.00;146687.47;5018635;28;20521;-62
2023/02/27 00:31:03;;;;;;;31.63;10.57;;;;;;;-3.02;100.00;146686.19;5014954;28;20076;-62
2023/02/27 00:33:29;;;;;;;23.93;10.77;;;;;;;-3.13;100.00;146658.03;5015140;28;20028;-62
2023/02/27 00:35:56;;;;;;;30.13;11.63;;;;;;;-3.21;100.00;146637.56;5014981;28;20041;-62
2023/02/27 00:38:22;;;;;;;27.90;11.50;;;;;;;-3.35;100.00;146603.03;5020869;28;20026;-62
2023/02/27 00:40:47;;;;;;;27.67;10.83;;;;;;;-3.40;100.00;146588.94;5014685;28;20992;-62
2023/02/27 00:43:13;;;;;;;31.93;11.33;;;;;;;-3.48;100.00;146568.53;5025695;28;20500;-62
2023/02/27 00:45:38;;;;;;;26.37;10.90;;;;;;;-3.51;100.00;146560.81;5022523;28;20503;-62
2023/02/27 00:48:03;;;;;;;35.43;12.17;;;;;;;-3.39;100.00;146591.50;5020508;28;20037;-62
2023/02/27 00:50:29;;;;;;;33.53;12.97;;;;;;;-3.42;100.00;146583.84;5017779;28;20813;-62
2023/02/27 00:52:54;;;;;;;31.90;12.73;;;;;;;-3.37;100.00;146596.66;5032785;28;20079;-62
2023/02/27 00:55:19;;;;;;;31.77;11.97;;;;;;;-3.44;100.00;146578.72;5032600;28;20029;-61
2023/02/27 00:57:45;;;;;;;34.53;13.67;;;;;;;-3.35;100.00;146601.75;5021913;28;20148;-62
2023/02/27 01:00:11;;;;;;;30.70;13.70;;;;;;;-3.40;100.00;146588.94;5023344;28;20061;-62
2023/02/27 01:02:36;;;;;;;31.50;13.17;;;;;;;-3.53;100.00;146558.25;5018940;28;20040;-62
2023/02/27 01:05:02;;;;;;;33.37;13.60;;;;;;;-3.63;100.00;146532.72;5027275;28;20084;-62
2023/02/27 01:07:27;;;;;;;33.60;13.90;;;;;;;-3.67;100.00;146522.47;5025903;28;20056;-62
2023/02/27 01:09:53;;;;;;;33.27;13.53;;;;;;;-3.64;100.00;146530.13;5017131;28;20021;-62
2023/02/27 01:12:18;;;;;;;38.93;14.53;;;;;;;-3.74;100.00;146504.59;5026684;28;20530;-62
2023/02/27 01:14:44;;;;;;;31.53;13.87;;;;;;;-3.60;100.00;146539.09;5032475;28;20040;-62
2023/02/27 01:17:09;;;;;;;38.17;14.73;;;;;;;-3.37;100.00;146597.94;5022438;28;20067;-62
2023/02/27 01:19:35;;;;;;;37.60;14.63;;;;;;;-3.41;100.00;146586.41;5015995;28;20117;-62
2023/02/27 01:22:00;;;;;;;36.53;14.10;;;;;;;-3.38;100.00;146594.09;5018037;28;20116;-62
2023/02/27 01:24:25;;;;;;;34.63;14.27;;;;;;;-3.42;100.00;146583.84;5028344;28;20997;-63
2023/02/27 01:26:51;;;;;;;39.27;14.77;;;;;;;-3.43;100.00;146582.56;5018114;28;20509;-63
2023/02/27 01:29:17;;;;;;;40.47;15.27;;;;;;;-3.48;100.00;146569.78;5030773;28;20022;-62
2023/02/27 01:31:42;;;;;;;45.10;14.43;;;;;;;-3.57;100.00;146548.03;5031251;28;20041;-62
2023/02/27 01:34:07;;;;;;;41.67;16.43;;;;;;;-3.61;100.00;146537.84;5023702;28;20035;-63
2023/02/27 01:36:33;;;;;;;46.83;16.07;;;;;;;-3.65;100.00;146527.56;5016255;28;20371;-62
2023/02/27 01:38:58;;;;;;;37.20;15.37;;;;;;;-3.69;100.00;146517.38;5016182;28;20737;-62
2023/02/27 01:41:23;;;;;;;50.43;15.67;;;;;;;-3.63;100.00;146532.72;5016144;28;20504;-62
2023/02/27 01:44:01;;;;;;;38.33;14.73;;;;;;;-3.63;100.00;146532.72;5031640;28;20033;-62
2023/02/27 01:46:28;;;;;;;46.30;16.33;;;;;;;-3.64;100.00;146530.13;5023076;28;20481;-62
2023/02/27 01:48:59;;;;;;;40.93;15.67;;;;;;;-3.68;100.00;146519.91;5012799;28;20253;-62
2023/02/27 01:51:29;;;;;;;45.43;16.00;;;;;;;-3.71;100.00;146512.25;5023390;28;20276;-62
2023/02/27 01:53:55;;;;;;;46.70;16.40;;;;;;;-3.76;100.00;146499.44;5030610;28;20310;-62
2023/02/27 01:56:26;;;;;;;43.70;16.13;;;;;;;-4.02;100.00;146433.00;5027542;28;20680;-62
2023/02/27 01:58:57;;;;;;;43.03;16.17;;;;;;;-4.21;100.00;146387.00;5013027;28;20737;-62
2023/02/27 02:01:23;;;;;;;41.08;15.63;;;;;;;-4.14;100.00;146404.88;5015490;28;20181;-65
2023/02/27 02:04:06;;;;;;;42.77;16.53;;;;;;;-4.03;100.00;146431.72;5023401;23;20149;-67
2023/02/27 02:06:36;;;;;;;41.83;15.97;;;;;;;-4.02;100.00;146434.28;5007190;28;20168;-68
2023/02/27 02:09:02;;;;;;;46.67;16.73;;;;;;;-3.88;100.00;146468.78;5007971;28;20283;-68
2023/02/27 02:11:28;;;;;;;43.43;16.90;;;;;;;-3.74;100.00;146504.59;5011797;28;20351;-68
2023/02/27 02:13:59;;;;;;;46.63;17.57;;;;;;;-3.66;100.00;146525.03;5011873;28;20277;-68
2023/02/27 02:17:08;;;;;;;52.70;17.17;;;;;;;-3.68;100.00;146519.91;5011412;28;20299;-67
2023/02/27 02:20:00;;;;;;;43.67;17.10;;;;;;;-3.67;100.00;146522.47;5009995;28;20304;-68
2023/02/27 02:22:44;;;;;;;;;;;;;;;-3.71;100.00;146512.25;5008396;28;20269;-68
2023/02/27 02:25:15;;;;;;;41.33;15.47;;;;;;;-3.69;100.00;146517.38;5011514;28;20114;-68
2023/02/27 02:28:05;;;;;;;45.92;18.30;;;;;;;-3.69;100.00;146517.38;5011092;28;20268;-68
2023/02/27 02:31:24;;;;;;;46.50;17.93;;;;;;;-3.68;100.00;146519.91;5013095;28;20508;-68
2023/02/27 02:34:03;;;;;;;47.13;18.63;;;;;;;-3.70;100.00;146514.81;4927938;29;20283;-68
2023/02/27 02:36:57;;;;;;;51.70;19.10;;;;;;;-3.68;100.00;146519.91;4917690;29;20288;-68
2023/02/27 02:39:36;;;;;;;50.70;19.13;;;;;;;-3.74;100.00;146504.59;4998543;28;20859;-68
2023/02/27 02:42:09;;;;;;;48.73;18.93;;;;;;;-3.75;100.00;146502.03;5009287;28;20289;-69
2023/02/27 02:45:06;;;;;;;50.17;20.10;;;;;;;-3.82;100.00;146484.13;5013347;28;20316;-68
2023/02/27 02:48:06;;;;;;;55.37;21.03;;;;;;;-3.85;100.00;146476.47;5010437;28;20763;-68
2023/02/27 02:50:38;;;;;;;60.07;20.07;;;;;;;-3.71;100.00;146512.25;5011971;28;20322;-67
2023/02/27 02:53:18;;;;;;;55.23;18.97;;;;;;;-3.60;100.00;146540.38;5011100;28;21172;-68
2023/02/27 02:55:49;;;;;;;62.03;22.93;;;;;;;-3.50;100.00;146563.41;5010280;28;20272;-66
2023/02/27 02:58:42;;;;;;;56.73;22.77;;;;;;;-3.54;100.00;146554.44;5008078;28;20336;-67
2023/02/27 03:01:16;;;;;;;57.67;22.87;;;;;;;-3.55;100.00;146553.16;5012835;28;21059;-68
2023/02/27 03:03:48;;;;;;;58.97;24.00;;;;;;;-3.53;100.00;146558.25;5009960;28;20293;-68
2023/02/27 03:06:20;;;;;;;56.70;22.40;;;;;;;-3.57;100.00;146548.03;4993115;28;20277;-67
2023/02/27 03:08:55;;;;;;;51.87;23.07;;;;;;;-3.61;100.00;146537.84;4995106;28;20736;-68
2023/02/27 03:11:25;;;;;;;55.13;22.70;;;;;;;-3.64;100.00;146530.13;4996109;28;20323;-68
2023/02/27 03:13:56;;;;;;;63.43;24.67;;;;;;;-3.56;100.00;146550.59;5003346;28;20295;-68
2023/02/27 03:16:28;;;;;;;62.63;25.17;;;;;;;-3.60;100.00;146540.38;5008655;28;20751;-68
2023/02/27 03:19:10;;;;;;;57.87;23.90;;;;;;;-3.62;100.00;146534.00;5010399;28;20022;-68
2023/02/27 03:21:41;;;;;;;57.83;23.37;;;;;;;-3.62;100.00;146535.28;5010700;28;20271;-62
2023/02/27 03:24:13;;;;;;;54.35;23.67;;;;;;;-3.63;100.00;146531.44;5010016;28;20807;-62
2023/02/27 03:26:43;;;;;;;57.40;23.27;;;;;;;-3.62;100.00;146535.28;5010602;28;20037;-62
2023/02/27 03:29:14;;;;;;;69.27;26.90;;;;;;;-3.55;100.00;146553.16;5010004;28;20272;-62
2023/02/27 03:32:00;;;;;;;62.22;25.77;;;;;;;-3.49;100.00;146565.97;5010419;28;20736;-62
2023/02/27 03:34:38;;;;;;;59.97;25.60;;;;;;;-3.50;100.00;146563.41;5007071;28;20026;-62
2023/02/27 03:37:14;;;;;;;63.73;27.73;;;;;;;-3.48;100.00;146568.53;5008676;28;20825;-62
2023/02/27 03:40:06;;;;;;;99.73;28.93;;;;;;;-3.45;100.00;146577.47;4997497;28;20281;-62
2023/02/27 03:42:37;;;;;;;69.60;27.13;;;;;;;-3.49;100.00;146565.97;4976494;28;20776;-61
2023/02/27 03:45:36;;;;;;;67.35;28.23;;;;;;;-3.57;100.00;146548.03;5006419;28;20447;-62
2023/02/27 03:48:03;;;;;;;69.23;28.50;;;;;;;-3.61;100.00;146536.56;5002675;28;20117;-62
2023/02/27 03:50:28;;;;;;;68.83;27.23;;;;;;;-3.48;100.00;146568.53;5005491;28;20273;-62
2023/02/27 03:52:55;;;;;;;69.30;27.73;;;;;;;-3.42;100.00;146583.84;5006932;28;20728;-63
2023/02/27 03:55:29;;;;;;;80.40;29.13;;;;;;;-3.40;100.00;146590.22;5011515;28;20102;-62
2023/02/27 03:57:54;;;;;;;71.70;28.30;;;;;;;-3.46;100.00;146573.63;5009394;28;20284;-62
2023/02/27 04:00:23;;;;;;;70.17;29.03;;;;;;;-3.57;100.00;146548.03;5009496;28;20343;-68
2023/02/27 04:02:50;;;;;;;77.20;29.57;;;;;;;-3.54;100.00;146555.69;5011696;28;20493;-68
2023/02/27 04:05:17;;;;;;;79.10;29.50;;;;;;;-3.52;100.00;146559.53;5011384;28;20273;-68
2023/02/27 04:07:52;;;;;;;74.83;29.17;;;;;;;-3.62;100.00;146535.28;5011012;28;20624;-68
2023/02/27 04:10:43;;;;;;;74.23;29.97;;;;;;;-3.53;100.00;146558.25;5009011;28;20292;-69
2023/02/27 04:13:17;;;;;;;79.33;30.80;;;;;;;-3.61;100.00;146536.56;5009253;28;20320;-67
2023/02/27 04:16:03;;;;;;;74.13;31.37;;;;;;;-3.51;100.00;146562.13;5000620;28;20343;-69
2023/02/27 04:18:55;;;;;;;83.93;31.10;;;;;;;-3.40;100.00;146588.94;5011330;28;20760;-68
2023/02/27 04:21:53;;;;;;;76.75;31.45;;;;;;;-3.36;100.00;146599.22;5010776;28;20355;-68
2023/02/27 04:24:25;;;;;;;71.97;31.50;;;;;;;-3.37;100.00;146596.66;5010223;28;20034;-68
2023/02/27 04:27:02;;;;;;;82.03;32.38;;;;;;;-3.41;100.00;146587.66;5010739;28;20276;-68
2023/02/27 04:29:35;;;;;;;72.60;32.13;;;;;;;-3.42;100.00;146583.84;5009653;28;20137;-68
2023/02/27 04:32:21;;;;;;;77.07;31.90;;;;;;;-3.57;100.00;146548.03;5010403;28;20265;-68
2023/02/27 04:34:56;;;;;;;81.57;34.20;;;;;;;-3.55;100.00;146553.16;5008261;28;20752;-68
2023/02/27 04:37:42;;;;;;;86.97;34.33;;;;;;;-3.46;100.00;146574.91;5009967;28;20287;-68
2023/02/27 04:40:11;;;;;;;76.87;33.63;;;;;;;-3.50;100.00;146564.69;5010820;28;20895;-68
2023/02/27 04:42:43;;;;;;;81.43;34.63;;;;;;;-3.53;100.00;146558.25;5010888;28;20269;-68
2023/02/27 04:45:13;;;;;;;81.17;34.90;;;;;;;-3.44;100.00;146578.72;5009652;28;20289;-68
2023/02/27 04:47:49;;;;;;;86.93;34.27;;;;;;;-3.28;100.00;146620.91;5011099;28;20814;-69
2023/02/27 04:50:24;;;;;;;87.83;36.10;;;;;;;-3.22;100.00;146635.00;5010272;28;20729;-68
2023/02/27 04:53:02;;;;;;;74.73;34.57;;;;;;;-3.18;100.00;146643.94;5010890;28;20327;-69
2023/02/27 04:55:37;;;;;;;77.10;33.63;;;;;;;-2.99;100.00;146692.56;5009143;28;20269;-69
2023/02/27 04:58:03;;;;;;;84.10;33.03;;;;;;;-3.08;100.00;146669.53;5009561;28;20287;-68
2023/02/27 05:00:31;;;;;;;83.27;35.43;;;;;;;-3.09;100.00;146668.25;5009290;28;20732;-69
2023/02/27 05:03:22;;;;;;;89.87;35.30;;;;;;;-3.19;100.00;146642.69;5010732;28;20038;-69
2023/02/27 05:05:50;;;;;;;75.77;31.80;;;;;;;-3.24;100.00;146629.91;5011562;28;20759;-69
2023/02/27 05:08:23;;;;;;;70.57;31.27;;;;;;;-3.35;100.00;146601.75;5014137;28;20756;-68
2023/02/27 05:10:56;;;;;;;75.43;31.97;;;;;;;-3.32;100.00;146609.44;5014137;28;20348;-69
2023/02/27 05:13:31;;;;;;;82.97;32.80;;;;;;;-3.33;100.00;146608.16;5012932;28;20288;-69
2023/02/27 05:16:12;;;;;;;70.67;31.50;;;;;;;-3.47;100.00;146571.06;5010602;28;20606;-69
2023/02/27 05:18:37;;;;;;;73.80;31.42;;;;;;;-3.42;100.00;146583.84;5013224;28;20768;-69
2023/02/27 05:21:20;;;;;;;69.13;29.87;;;;;;;-3.28;100.00;146620.91;5013954;28;20033;-69
2023/02/27 05:23:58;;;;;;;73.83;32.27;;;;;;;-3.33;100.00;146606.88;5013790;28;20490;-69
2023/02/27 05:27:01;;;;;;;71.00;32.00;;;;;;;-3.34;100.00;146604.31;5013918;28;20695;-69
2023/02/27 05:29:52;;;;;;;73.97;30.73;;;;;;;-3.34;100.00;146604.31;5012596;28;20610;-69
2023/02/27 05:32:46;;;;;;;70.43;31.30;;;;;;;-3.02;100.00;146686.19;5012814;28;20273;-69
2023/02/27 05:35:19;;;;;;;71.97;30.60;;;;;;;-3.18;100.00;146645.22;5013719;28;20335;-69
2023/02/27 05:37:50;;;;;;;69.87;30.70;;;;;;;-3.26;100.00;146624.81;5013407;28;20284;-68
2023/02/27 05:40:24;;;;;;;71.80;31.75;;;;;;;-3.27;100.00;146622.19;5012400;28;20834;-69
2023/02/27 05:42:59;;;;;;;76.80;31.77;;;;;;;-3.17;100.00;146647.78;5006815;28;20029;-69
2023/02/27 05:45:29;;;;;;;71.10;32.03;;;;;;;-3.13;100.00;146656.78;5010754;28;20285;-69
2023/02/27 05:48:04;;;;;;;72.30;31.87;;;;;;;-3.12;100.00;146660.59;5013285;28;20336;-69
2023/02/27 05:50:33;;;;;;;71.87;31.43;;;;;;;-2.99;100.00;146693.84;5012913;28;20268;-69
2023/02/27 05:53:03;;;;;;;72.90;30.43;;;;;;;-2.95;100.00;146704.06;5013020;28;20264;-70
2023/02/27 05:55:42;;;;;;;65.83;31.03;;;;;;;-3.04;100.00;146681.03;5009418;28;20279;-69
2023/02/27 05:58:26;;;;;;;72.67;30.63;;;;;;;-3.03;100.00;146682.31;5011645;28;20693;-70
2023/02/27 06:00:58;;;;;;;68.90;30.90;;;;;;;-3.07;100.00;146673.38;5010212;28;20289;-69
2023/02/27 06:03:26;;;;;;;76.70;35.10;;;;;;;-3.11;100.00;146663.16;5012645;28;20745;-69
2023/02/27 06:05:53;;;;;;;71.03;34.07;;;;;;;-3.18;100.00;146643.94;5012502;28;20276;-70
2023/02/27 06:08:19;;;;;;;74.90;34.73;;;;;;;-3.18;100.00;146645.22;5011872;28;20728;-69
2023/02/27 06:10:45;;;;;;;74.70;35.17;;;;;;;-3.20;100.00;146640.13;5012207;28;20775;-69
2023/02/27 06:13:10;;;;;;;73.83;34.63;;;;;;;-3.21;100.00;146637.56;5010671;28;20272;-69
2023/02/27 06:15:36;;;;;;;76.90;36.53;;;;;;;-3.17;100.00;146647.78;5011173;28;20029;-69
2023/02/27 06:18:01;;;;;;;75.97;36.23;;;;;;;-3.18;100.00;146645.22;5012493;28;20033;-69
2023/02/27 06:20:27;;;;;;;65.70;33.80;;;;;;;-3.16;100.00;146650.34;5012492;28;20025;-69
2023/02/27 06:22:52;;;;;;;73.30;35.80;;;;;;;-3.11;100.00;146663.16;5012571;28;20033;-70
2023/02/27 06:25:18;;;;;;;80.07;37.50;;;;;;;-2.86;100.00;146724.56;5011641;28;20067;-70
2023/02/27 06:27:43;;;;;;;81.30;38.30;;;;;;;-2.76;100.00;146750.16;5012367;28;20477;-70
2023/02/27 06:30:09;;;;;;;85.00;41.87;;;;;;;-2.58;100.00;146796.19;5011838;28;20106;-70
2023/02/27 06:32:35;;;;;;;85.40;38.70;;;;;;;-2.43;100.00;146834.59;5012554;28;20032;-70
2023/02/27 06:35:00;;;;;;;71.93;36.30;;;;;;;-2.26;100.00;146875.59;5012694;28;20257;-70
2023/02/27 06:37:26;;;;;;;63.53;34.33;;;;;;;-2.08;100.00;146921.66;5012023;28;20049;-70
2023/02/27 06:39:51;;;;;;;66.57;30.73;;;;;;;-2.08;100.00;146922.94;5012430;28;20414;-70
2023/02/27 06:42:17;;;;;;;49.33;25.53;;;;;;;-1.98;100.00;146947.28;5012347;28;20477;-70
2023/02/27 06:44:42;;;;;;;49.43;22.97;;;;;;;-1.80;100.00;146993.38;5012235;28;20496;-71
2023/02/27 06:47:08;;;;;;;41.80;20.60;;;;;;;-1.67;100.00;147024.13;5012712;28;20261;-71
2023/02/27 06:49:33;;;;;;;36.13;18.23;;;;;;;-1.57;100.00;147049.75;5011517;28;20544;-71
2023/02/27 06:51:59;;;;;;;30.07;15.87;;;;;;;-1.40;100.00;147093.31;5012146;28;20067;-71
2023/02/27 06:54:24;;;;;;;24.67;14.00;;;;;;;-1.02;100.00;147188.13;5012173;28;20022;-71
2023/02/27 06:56:50;;;;;;;28.67;13.80;;;;;;;-0.26;100.00;147380.44;5012214;28;20469;-71
2023/02/27 06:59:16;;;;;;;24.20;10.17;;;;;;;0.42;100.00;147552.38;5010823;28;20106;-69
2023/02/27 07:01:42;;;;;;;12.97;7.50;;;;;;;1.04;100.00;147709.00;5011307;28;20114;-69
2023/02/27 07:04:11;;;;;;;15.23;7.47;;;;;;;1.42;100.00;147804.06;5011605;28;20381;-70
2023/02/27 07:06:37;;;;;;;9.83;4.97;;;;;;;1.68;100.00;147870.88;5011630;28;20026;-69
2023/02/27 07:09:02;;;;;;;12.33;4.53;;;;;;;2.44;100.00;148061.16;5012472;28;20018;-68
2023/02/27 07:11:28;;;;;;;9.80;4.23;;;;;;;2.85;100.00;148166.59;5008977;28;20033;-68
2023/02/27 07:13:54;;;;;;;9.87;4.30;;;;;;;3.16;100.00;148243.81;5011880;28;20033;-68
2023/02/27 07:16:19;;;;;;;10.30;4.13;;;;;;;3.81;100.00;148408.53;5010469;28;20112;-67
2023/02/27 07:18:44;;;;;;;9.10;4.03;;;;;;;4.45;100.00;148570.81;5011918;28;20230;-67
2023/02/27 07:21:10;;;;;;;9.43;4.07;;;;;;;4.42;100.00;148563.09;5011349;28;20022;-66
2023/02/27 07:23:36;;;;;;;7.03;3.30;;;;;;;4.67;100.00;148626.22;5001584;28;20486;-66
2023/02/27 07:26:01;;;;;;;9.70;3.20;;;;;;;4.74;100.00;148643.00;5001797;28;20565;-65
2023/02/27 07:28:27;;;;;;;11.10;3.60;;;;;;;4.80;100.00;148658.44;4997593;28;20110;-65
2023/02/27 07:30:54;;;;;;;11.60;3.67;;;;;;;5.76;100.00;148903.41;5001634;28;20478;-65
2023/02/27 07:33:19;;;;;;;11.60;4.17;;;;;;;5.44;100.00;148820.84;5002972;28;20026;-65
2023/02/27 07:35:45;;;;;;;8.57;3.00;;;;;;;5.24;100.00;148771.88;5002075;28;20478;-65
2023/02/27 07:38:10;;;;;;;8.10;3.47;;;;;;;6.07;100.00;148982.16;5010261;28;20033;-65
2023/02/27 07:40:35;;;;;;;7.73;3.40;;;;;;;5.98;100.00;148957.63;5011226;28;20432;-65
2023/02/27 07:43:01;;;;;;;7.60;3.10;;;;;;;6.51;100.00;149091.81;5011971;28;20052;-65
2023/02/27 07:45:26;;;;;;;9.13;3.40;;;;;;;7.24;100.00;149277.72;5010578;28;20485;-66
2023/02/27 07:47:52;;;;;;;9.37;3.43;;;;;;;6.79;100.00;149162.84;5011371;28;20041;-66
2023/02/27 07:50:17;;;;;;;11.13;3.70;;;;;;;6.12;100.00;148993.75;5011320;28;20014;-66
2023/02/27 07:52:43;;;;;;;6.80;3.47;;;;;;;6.94;100.00;149202.84;5011946;28;20028;-66
2023/02/27 07:55:11;;;;;;;10.00;3.60;;;;;;;7.31;100.00;149295.84;5011676;28;20029;-66
2023/02/27 07:57:36;;;;;;;9.30;3.70;;;;;;;7.54;100.00;149355.25;5011959;28;20495;-67
2023/02/27 08:00:06;;;;;;;12.07;3.20;;;;;;;8.26;100.00;149536.16;5010583;28;20100;-66
2023/02/27 08:02:32;;;;;;;9.53;3.00;;;;;;;7.67;100.00;149386.25;5011976;28;20374;-66
2023/02/27 08:04:58;;;;;;;8.07;3.43;;;;;;;8.44;100.00;149582.75;5011302;28;20120;-66
2023/02/27 08:07:24;;;;;;;6.00;3.13;;;;;;;9.16;100.00;149765.09;5011599;28;20030;-66
2023/02/27 08:09:49;;;;;;;6.38;3.15;;;;;;;9.69;100.00;149900.94;5011431;28;20428;-67
2023/02/27 08:12:14;;;;;;;7.03;2.70;;;;;;;9.48;100.00;149846.63;5011381;28;20025;-67
2023/02/27 08:14:40;;;;;;;7.50;3.00;;;;;;;9.04;100.00;149735.34;5010168;28;20105;-67
2023/02/27 08:17:05;;;;;;;8.97;3.27;;;;;;;8.85;100.00;149687.50;5011831;28;20030;-67
2023/02/27 08:19:31;;;;;;;10.93;3.50;;;;;;;8.57;100.00;149615.06;5011361;28;20042;-67
2023/02/27 08:21:56;;;;;;;7.43;2.90;;;;;;;8.07;100.00;149489.63;5011351;28;20109;-67
2023/02/27 08:24:21;;;;;;;9.00;3.17;;;;;;;7.91;100.00;149448.28;5010186;28;20030;-67
2023/02/27 08:26:47;;;;;;;9.90;3.70;;;;;;;8.02;100.00;149476.72;5011129;28;20033;-67
2023/02/27 08:29:12;;;;;;;7.77;3.33;;;;;;;7.88;100.00;149441.81;5010925;28;20033;-67
2023/02/27 08:31:38;;;;;;;8.67;3.30;;;;;;;7.63;100.00;149378.53;5010411;28;20036;-67
2023/02/27 08:34:03;;;;;;;10.00;3.63;;;;;;;7.77;100.00;149412.09;5011603;28;20037;-67
2023/02/27 08:36:28;;;;;;;13.83;3.77;;;;;;;7.84;100.00;149430.16;5011113;28;20453;-67
2023/02/27 08:38:54;;;;;;;9.80;3.40;;;;;;;7.93;100.00;148775.03;5012197;28;20026;-67
2023/02/27 08:41:21;;;;;;;10.17;3.80;;;;;;;7.97;100.00;144058.25;5015306;28;20057;-67
2023/02/27 08:43:46;;;;;;;8.60;3.80;;;;;;;8.17;100.00;140734.28;5015015;28;20489;-66
2023/02/27 08:46:12;;;;;;;10.33;3.40;;;;;;;8.52;100.00;137444.50;5013805;28;20086;-67
2023/02/27 08:48:38;;;;;;;11.13;3.67;;;;;;;8.75;100.00;131770.84;5014944;28;20235;-67
2023/02/27 08:51:06;;;;;;;8.80;3.17;;;;;;;9.55;100.00;127906.34;5015232;28;20377;-67
2023/02/27 08:53:32;;;;;;;8.40;3.40;;;;;;;8.86;100.00;109303.47;5015017;28;20038;-67
2023/02/27 08:55:57;;;;;;;9.60;3.80;;;;;;;8.58;100.00;98899.81;5014348;28;20079;-67
2023/02/27 08:58:22;;;;;;;9.87;3.50;;;;;;;9.06;100.00;92312.47;5014300;28;20025;-67
2023/02/27 09:00:48;;;;;;;9.37;3.57;;;;;;;9.04;100.00;78348.53;5013808;28;20068;-67
2023/02/27 09:03:13;;;;;;;9.43;4.00;;;;;;;8.86;100.00;67067.78;5014440;28;20087;-67
2023/02/27 09:05:40;;;;;;;7.27;3.53;;;;;;;8.79;100.00;57159.44;5014906;28;20116;-67
2023/02/27 09:08:06;;;;;;;11.43;3.77;;;;;;;6.74;100.00;33065.72;5014525;28;20025;-67
2023/02/27 09:10:34;;;;;;;7.40;3.17;;;;;;;5.30;100.00;51575.38;5014621;28;20048;-67
2023/02/27 09:13:00;;;;;;;7.53;3.17;;;;;;;4.64;100.00;80394.53;5014248;28;20026;-68
2023/02/27 09:15:26;;;;;;;10.00;3.27;;;;;;;4.27;100.00;103474.25;5013247;28;20029;-68
2023/02/27 09:17:53;;;;;;;10.20;3.53;;;;;;;4.14;100.00;121731.16;5014697;28;20036;-68
2023/02/27 09:20:19;;;;;;;12.07;3.80;;;;;;;4.10;100.00;135410.25;5013611;28;20068;-68
2023/02/27 09:22:44;;;;;;;8.53;3.43;;;;;;;4.10;100.00;144454.22;5014271;28;20029;-68
2023/02/27 09:25:09;;;;;;;11.73;4.53;;;;;;;4.13;100.00;148488.41;5014178;28;20076;-68
2023/02/27 09:27:35;;;;;;;10.17;3.73;;;;;;;4.14;100.00;148492.25;5014405;28;20045;-68
2023/02/27 09:30:00;;;;;;;8.70;3.70;;;;;;;4.13;100.00;148489.69;5013294;28;20076;-68
2023/02/27 09:32:26;;;;;;;11.17;3.90;;;;;;;4.27;100.00;148524.47;5014817;28;20029;-68
2023/02/27 09:34:52;;;;;;;11.10;3.57;;;;;;;4.28;100.00;148527.03;5014081;28;20033;-69
2023/02/27 09:37:18;;;;;;;13.70;4.20;;;;;;;4.29;100.00;148529.59;5013588;28;20370;-68
2023/02/27 09:39:44;;;;;;;13.13;3.67;;;;;;;4.26;100.00;148521.88;5012577;28;20080;-68
2023/02/27 09:42:18;;;;;;;11.13;3.50;;;;;;;4.25;100.00;148519.31;5013899;28;20168;-68
2023/02/27 09:44:48;;;;;;;10.23;3.03;;;;;;;4.09;100.00;148480.66;5011752;28;20100;-69
2023/02/27 09:47:13;;;;;;;8.13;3.37;;;;;;;4.03;100.00;148465.22;5014073;28;20485;-69
2023/02/27 09:50:01;;;;;;;8.57;2.77;;;;;;;3.99;100.00;148454.88;5013798;28;20029;-68
2023/02/27 09:52:29;;;;;;;10.60;3.70;;;;;;;3.93;100.00;148439.44;5013115;28;20105;-69
2023/02/27 09:54:55;;;;;;;10.93;3.80;;;;;;;3.92;100.00;148436.88;5013658;28;20030;-68
2023/02/27 09:57:39;;;;;;;11.47;4.40;;;;;;;3.93;100.00;148439.44;5013907;28;20378;-68
2023/02/27 10:00:14;;;;;;;10.30;4.20;;;;;;;3.98;100.00;148452.31;5011062;28;20073;-68
2023/02/27 10:02:57;;;;;;;10.33;3.67;;;;;;;4.05;100.00;148470.34;5013886;28;20041;-69
2023/02/27 10:05:25;;;;;;;15.23;4.73;;;;;;;4.11;100.00;148485.78;5013256;28;20026;-69
2023/02/27 10:08:26;;;;;;;8.00;3.30;;;;;;;4.18;100.00;148501.25;5013420;28;20114;-68
2023/02/27 10:11:09;;;;;;;9.63;3.90;;;;;;;4.34;100.00;148542.47;4979722;28;20409;-68
2023/02/27 10:13:53;;;;;;;6.77;3.13;;;;;;;4.23;100.00;148514.13;5012688;28;20026;-68
2023/02/27 10:16:20;;;;;;;13.13;3.70;;;;;;;4.38;100.00;148552.81;5009537;28;20192;-68
2023/02/27 10:18:57;;;;;;;9.77;3.63;;;;;;;4.39;100.00;148555.38;5013501;28;20025;-68
2023/02/27 10:21:38;;;;;;;12.63;3.87;;;;;;;4.48;100.00;148577.25;5012825;28;20026;-68
2023/02/27 10:24:06;;;;;;;8.75;3.92;;;;;;;4.56;100.00;148597.88;5013458;28;20061;-69
2023/02/27 10:26:38;;;;;;;9.27;3.13;;;;;;;4.73;100.00;148640.44;5013029;28;20120;-69
2023/02/27 10:29:32;;;;;;;9.07;3.33;;;;;;;4.92;100.00;148689.38;5011630;28;20034;-69
2023/02/27 10:31:57;;;;;;;10.50;3.70;;;;;;;5.05;100.00;148722.88;5013090;28;20081;-68
2023/02/27 10:34:25;;;;;;;13.83;3.80;;;;;;;5.08;100.00;148730.59;5012886;28;20038;-68
2023/02/27 10:36:51;;;;;;;11.90;3.77;;;;;;;5.18;100.00;148756.38;5012514;28;20026;-69
2023/02/27 10:39:19;;;;;;;10.53;3.60;;;;;;;5.34;100.00;148795.09;5012606;28;20026;-68
2023/02/27 10:41:45;;;;;;;13.27;3.83;;;;;;;5.45;100.00;148824.75;5013045;28;20026;-68
2023/02/27 10:44:15;;;;;;;11.13;3.63;;;;;;;5.39;100.00;148809.25;5011507;28;20038;-68
2023/02/27 10:46:41;;;;;;;5.50;2.80;;;;;;;5.22;100.00;148765.44;5012493;28;20053;-67
2023/02/27 10:49:18;;;;;;;8.20;3.67;;;;;;;5.10;100.00;148735.78;5012709;28;20065;-68
2023/02/27 10:51:46;;;;;;;8.50;2.67;;;;;;;5.25;100.00;148773.16;5012752;28;20473;-68
2023/02/27 10:54:23;;;;;;;8.30;2.13;;;;;;;5.26;100.00;148777.03;5011303;28;20382;-67
2023/02/27 10:56:52;;;;;;;5.80;1.83;;;;;;;5.10;100.00;148734.50;5012293;28;20038;-68
2023/02/27 10:59:33;;;;;;;8.67;2.30;;;;;;;5.15;100.00;148747.38;5011476;28;20022;-68
2023/02/27 11:02:05;;;;;;;6.80;2.17;;;;;;;5.17;100.00;148752.53;5012122;28;20046;-68
2023/02/27 11:04:34;;;;;;;10.30;2.47;;;;;;;5.16;100.00;148751.25;5010668;28;20436;-68
2023/02/27 11:07:03;;;;;;;6.70;1.90;;;;;;;4.93;100.00;148693.22;5012692;28;20478;-68
2023/02/27 11:09:33;;;;;;;8.30;2.40;;;;;;;4.98;100.00;148704.84;5012306;28;20108;-68
2023/02/27 11:12:26;;;;;;;9.63;2.00;;;;;;;5.14;100.00;148744.81;5012197;28;20033;-68
2023/02/27 11:14:57;;;;;;;4.50;1.80;;;;;;;5.30;100.00;148787.31;5003029;28;20046;-68
2023/02/27 11:17:31;;;;;;;7.15;2.17;;;;;;;5.22;100.00;148766.72;5011526;28;20064;-68
2023/02/27 11:19:58;;;;;;;4.23;1.90;;;;;;;5.24;100.00;148770.59;5011346;28;20111;-69
2023/02/27 11:22:26;;;;;;;6.77;2.13;;;;;;;5.08;100.00;145366.75;5011599;28;20120;-69
2023/02/27 11:25:20;;;;;;;5.27;1.80;;;;;;;5.15;100.00;142697.38;5011378;28;20033;-69
2023/02/27 11:27:46;;;;;;;6.93;1.73;;;;;;;5.50;100.00;141437.97;5011797;28;20026;-68